Time;durP1;ratioP1;P1;durP2;ratioP2;P2;SDS_P1;SDS_P2;PMS_P1;PMS_P2;Temp;Humidity;BMP_temperature;BMP_pressure;BME280_temperature;BME280_humidity;BME280_pressure;Samples;Min_cycle;Max_cycle;Signal;HPM_P1;HPM_P2
2023/10/17 00:01:59;;;;;;;;;;;;;;;;;;5021897;28;19921;-80
2023/10/17 00:04:27;;;;;;;;;;;;;;;;;;5018550;28;20458;-85
2023/10/17 00:06:58;;;;;;;;;;;;;;;;;;5018868;28;19913;-80
2023/10/17 00:09:26;;;;;;;;;;;;;;;;;;5018173;28;19957;-82
2023/10/17 00:14:19;;;;;;;;;;;;;;;;;;5018974;28;19972;-82
2023/10/17 00:16:44;;;;;;;;;;;;;;;;;;5019656;28;20258;-80
2023/10/17 00:19:10;;;;;;;;;;;;;;;;;;5018926;28;19918;-81
2023/10/17 00:21:35;;;;;;;;;;;;;;;;;;5019291;28;19929;-84
2023/10/17 00:24:08;;;;;;;;;;;;;;;;;;5017300;28;19921;-82
2023/10/17 00:26:33;;;;;;;;;;;;;;;;;;5016239;28;20339;-84
2023/10/17 00:28:58;;;;;;;;;;;;;;;;;;5016219;28;19917;-81
2023/10/17 00:31:23;;;;;;;;;;;;;;;;;;5018001;28;19948;-84
2023/10/17 00:33:49;;;;;;;;;;;;;;;;;;5017501;28;20349;-80
2023/10/17 00:36:18;;;;;;;;;;;;;;;;;;5020069;28;19924;-81
2023/10/17 00:38:44;;;;;;;;;;;;;;;;;;5029223;28;19925;-84
2023/10/17 00:41:10;;;;;;;;;;;;;;;;;;5025243;28;20294;-82
2023/10/17 00:43:35;;;;;;;;;;;;;;;;;;5024089;28;20004;-83
2023/10/17 00:46:00;;;;;;;;;;;;;;;;;;5023440;28;19917;-80
2023/10/17 00:48:26;;;;;;;;;;;;;;;;;;5021798;28;21162;-85
2023/10/17 00:50:52;;;;;;;;;;;;;;;;;;5024875;28;19917;-81
2023/10/17 00:53:17;;;;;;;;;;;;;;;;;;5025356;28;19955;-83
2023/10/17 00:55:50;;;;;;;;;;;;;;;;;;5023515;28;19996;-82
2023/10/17 00:58:15;;;;;;;;;;;;;;;;;;5020057;28;19925;-82
2023/10/17 01:00:45;;;;;;;;;;;;;;;;;;5017503;28;19917;-80
2023/10/17 01:03:13;;;;;;;;;;;;;;;;;;5019496;28;21119;-84
2023/10/17 01:05:39;;;;;;;;;;;;;;;;;;5019463;28;19944;-81
2023/10/17 01:08:04;;;;;;;;;;;;;;;;;;5019220;28;19917;-83
2023/10/17 01:10:29;;;;;;;;;;;;;;;;;;5015835;28;19917;-84
2023/10/17 01:13:03;;;;;;;;;;;;;;;;;;5014051;28;19917;-82
2023/10/17 01:15:29;;;;;;;;;;;;;;;;;;5013900;28;19921;-83
2023/10/17 01:17:54;;;;;;;;;;;;;;;;;;5015609;28;19917;-82
2023/10/17 01:20:20;;;;;;;;;;;;;;;;;;5013330;28;20104;-84
2023/10/17 01:22:45;;;;;;;;;;;;;;;;;;5013608;28;19921;-83
2023/10/17 01:25:26;;;;;;;;;;;;;;;;;;5014452;28;19976;-82
2023/10/17 01:27:51;;;;;;;;;;;;;;;;;;5014588;28;19924;-83
2023/10/17 01:30:17;;;;;;;;;;;;;;;;;;5012724;28;20345;-82
2023/10/17 01:32:42;;;;;;;;;;;;;;;;;;5013930;28;19917;-83
2023/10/17 01:35:07;;;;;;;;;;;;;;;;;;5013646;28;19959;-82
2023/10/17 01:37:32;;;;;;;;;;;;;;;;;;5014582;28;19917;-82
2023/10/17 01:39:57;;;;;;;;;;;;;;;;;;5013789;28;19997;-83
2023/10/17 01:42:23;;;;;;;;;;;;;;;;;;5017425;28;19917;-82
2023/10/17 01:44:48;;;;;;;;;;;;;;;;;;5014090;28;19932;-83
2023/10/17 01:47:14;;;;;;;;;;;;;;;;;;5012986;28;19917;-82
2023/10/17 01:49:40;;;;;;;;;;;;;;;;;;5014303;28;19924;-84
2023/10/17 01:52:08;;;;;;;;;;;;;;;;;;5011470;28;19940;-84
2023/10/17 01:54:33;;;;;;;;;;;;;;;;;;5015087;28;19921;-81
2023/10/17 01:57:05;;;;;;;;;;;;;;;;;;5015520;28;20012;-83
2023/10/17 01:59:34;;;;;;;;;;;;;;;;;;5013743;28;22468;-84
2023/10/17 02:01:59;;;;;;;;;;;;;;;;;;5013357;28;19930;-84
2023/10/17 02:04:25;;;;;;;;;;;;;;;;;;5011985;28;20203;-85
2023/10/17 02:06:50;;;;;;;;;;;;;;;;;;5011834;28;19928;-83
2023/10/17 02:09:44;;;;;;;;;;;;;;;;;;5013993;28;19928;-85
2023/10/17 02:12:09;;;;;;;;;;;;;;;;;;5012644;28;19921;-82
2023/10/17 02:14:34;;;;;;;;;;;;;;;;;;5012343;28;19978;-82
2023/10/17 02:16:59;;;;;;;;;;;;;;;;;;5014274;28;20283;-83
2023/10/17 02:19:31;;;;;;;;;;;;;;;;;;5012834;28;20405;-82
2023/10/17 02:21:58;;;;;;;;;;;;;;;;;;5013130;28;20141;-83
2023/10/17 02:24:23;;;;;;;;;;;;;;;;;;5013195;28;19929;-80
2023/10/17 02:26:55;;;;;;;;;;;;;;;;;;5013173;28;19922;-83
2023/10/17 02:29:23;;;;;;;;;;;;;;;;;;5014417;28;19922;-84
2023/10/17 02:31:52;;;;;;;;;;;;;;;;;;5013258;28;20123;-84
2023/10/17 02:34:22;;;;;;;;;;;;;;;;;;5012488;28;20378;-83
2023/10/17 02:36:47;;;;;;;;;;;;;;;;;;5013961;28;21703;-83
2023/10/17 02:39:12;;;;;;;;;;;;;;;;;;5011644;28;20403;-80
2023/10/17 02:41:37;;;;;;;;;;;;;;;;;;5011944;28;19921;-84
2023/10/17 02:44:03;;;;;;;;;;;;;;;;;;5012353;28;19921;-84
2023/10/17 02:46:28;;;;;;;;;;;;;;;;;;5012983;28;19922;-82
2023/10/17 02:48:54;;;;;;;;;;;;;;;;;;5012688;28;19929;-83
2023/10/17 02:53:50;;;;;;;;;;;;;;;;;;5016546;28;20371;-83
2023/10/17 02:56:18;;;;;;;;;;;;;;;;;;5011826;28;19925;-83
2023/10/17 02:58:47;;;;;;;;;;;;;;;;;;5011848;28;19921;-83
2023/10/17 03:01:12;;;;;;;;;;;;;;;;;;5013937;28;19944;-81
2023/10/17 03:03:39;;;;;;;;;;;;;;;;;;5013571;28;20267;-83
2023/10/17 03:06:05;;;;;;;;;;;;;;;;;;5011977;28;19921;-84
2023/10/17 03:08:36;;;;;;;;;;;;;;;;;;5013702;28;19944;-84
2023/10/17 03:11:01;;;;;;;;;;;;;;;;;;5013292;28;19922;-82
2023/10/17 03:13:39;;;;;;;;;;;;;;;;;;5014335;28;19928;-84
2023/10/17 03:16:15;;;;;;;;;;;;;;;;;;5015185;28;19975;-83
2023/10/17 03:18:41;;;;;;;;;;;;;;;;;;5011690;28;19921;-84
2023/10/17 03:21:08;;;;;;;;;;;;;;;;;;5014230;28;19932;-84
2023/10/17 03:23:34;;;;;;;;;;;;;;;;;;5013030;28;19968;-80
2023/10/17 03:26:02;;;;;;;;;;;;;;;;;;5013096;28;20276;-83
2023/10/17 03:28:27;;;;;;;;;;;;;;;;;;5014067;28;19928;-82
2023/10/17 03:30:53;;;;;;;;;;;;;;;;;;5012027;28;20000;-85
2023/10/17 03:33:26;;;;;;;;;;;;;;;;;;5011501;28;20020;-84
2023/10/17 03:38:30;;;;;;;;;;;;;;;;;;5013662;28;19928;-83
2023/10/17 03:41:02;;;;;;;;;;;;;;;;;;5012378;28;20152;-82
2023/10/17 03:43:28;;;;;;;;;;;;;;;;;;5012258;28;19928;-84
2023/10/17 03:45:56;;;;;;;;;;;;;;;;;;5013568;28;19929;-83
2023/10/17 03:48:22;;;;;;;;;;;;;;;;;;5012086;28;19928;-83
2023/10/17 03:53:24;;;;;;;;;;;;;;;;;;5013387;28;19972;-84
2023/10/17 03:55:50;;;;;;;;;;;;;;;;;;5006251;28;19929;-85
2023/10/17 04:00:49;;;;;;;;;;;;;;;;;;5012153;28;19928;-84
2023/10/17 04:05:46;;;;;;;;;;;;;;;;;;5007666;28;19932;-83
2023/10/17 04:08:11;;;;;;;;;;;;;;;;;;5009099;28;19921;-83
2023/10/17 04:10:47;;;;;;;;;;;;;;;;;;5013347;28;19952;-82
2023/10/17 04:13:34;;;;;;;;;;;;;;;;;;5018227;28;19949;-85
2023/10/17 04:15:59;;;;;;;;;;;;;;;;;;5016278;28;19925;-83
2023/10/17 04:18:24;;;;;;;;;;;;;;;;;;5019211;28;20399;-85
2023/10/17 04:20:51;;;;;;;;;;;;;;;;;;5018332;28;19925;-83
2023/10/17 04:23:21;;;;;;;;;;;;;;;;;;5017412;28;19967;-85
2023/10/17 04:25:50;;;;;;;;;;;;;;;;;;5014037;28;19930;-84
2023/10/17 04:28:16;;;;;;;;;;;;;;;;;;5016089;28;19982;-82
2023/10/17 04:30:48;;;;;;;;;;;;;;;;;;5019754;28;20371;-84
2023/10/17 04:33:13;;;;;;;;;;;;;;;;;;5014181;28;19922;-83
2023/10/17 04:35:46;;;;;;;;;;;;;;;;;;5015642;28;20213;-82
2023/10/17 04:38:36;;;;;;;;;;;;;;;;;;5014493;28;19922;-83
2023/10/17 04:43:54;;;;;;;;;;;;;;;;;;5014937;28;20406;-82
2023/10/17 04:46:25;;;;;;;;;;;;;;;;;;5012558;28;20319;-83
2023/10/17 04:48:52;;;;;;;;;;;;;;;;;;5012357;28;19996;-83
2023/10/17 04:53:48;;;;;;;;;;;;;;;;;;5015587;28;20122;-84
2023/10/17 04:56:15;;;;;;;;;;;;;;;;;;5012508;28;19929;-84
2023/10/17 04:58:47;;;;;;;;;;;;;;;;;;5013174;28;19928;-83
2023/10/17 05:01:18;;;;;;;;;;;;;;;;;;5012951;28;19984;-83
2023/10/17 05:03:46;;;;;;;;;;;;;;;;;;5015881;28;19921;-83
2023/10/17 06:17:06;;;;;;;;;;;;;;;;;;5011539;28;19940;-83
2023/10/17 06:19:32;;;;;;;;;;;;;;;;;;5019976;28;19925;-83
2023/10/17 06:27:51;;;;;;;;;;;;;;;;;;5021351;28;19921;-83
2023/10/17 06:34:47;;;;;;;;;;;;;;;;;;5017702;28;19925;-83
2023/10/17 06:37:19;;;;;;;;;;;;;;;;;;5015589;28;19944;-83
2023/10/17 06:39:47;;;;;;;;;;;;;;;;;;5013642;28;19925;-83
2023/10/17 06:42:15;;;;;;;;;;;;;;;;;;5019415;28;20356;-83
2023/10/17 06:44:51;;;;;;;;;;;;;;;;;;5016720;28;20370;-82
2023/10/17 06:47:17;;;;;;;;;;;;;;;;;;5024430;28;19928;-84
2023/10/17 06:54:41;;;;;;;;;;;;;;;;;;5014065;28;19935;-83
2023/10/17 06:57:18;;;;;;;;;;;;;;;;;;5014981;28;19928;-84
2023/10/17 06:59:43;;;;;;;;;;;;;;;;;;5013176;28;20001;-85
2023/10/17 07:04:55;;;;;;;;;;;;;;;;;;5011339;28;19928;-85
2023/10/17 07:07:22;;;;;;;;;;;;;;;;;;5018072;28;19922;-84
2023/10/17 07:09:52;;;;;;;;;;;;;;;;;;5013816;28;19925;-84
2023/10/17 07:12:17;;;;;;;;;;;;;;;;;;5015112;28;19922;-82
2023/10/17 07:14:47;;;;;;;;;;;;;;;;;;5015333;28;20115;-86
2023/10/17 07:17:28;;;;;;;;;;;;;;;;;;5016714;28;19959;-85
2023/10/17 07:20:01;;;;;;;;;;;;;;;;;;5014012;28;19921;-85
2023/10/17 07:22:26;;;;;;;;;;;;;;;;;;5011183;28;19921;-84
2023/10/17 07:24:52;;;;;;;;;;;;;;;;;;5016603;28;19926;-86
2023/10/17 07:27:27;;;;;;;;;;;;;;;;;;5010437;28;19925;-84
2023/10/17 07:30:10;;;;;;;;;;;;;;;;;;5013944;28;19922;-87
2023/10/17 07:32:44;;;;;;;;;;;;;;;;;;5013381;28;19944;-85
2023/10/17 07:35:10;;;;;;;;;;;;;;;;;;5016854;28;19929;-84
2023/10/17 07:37:48;;;;;;;;;;;;;;;;;;5010267;28;19928;-84
2023/10/17 07:42:41;;;;;;;;;;;;;;;;;;5014676;28;19929;-82
2023/10/17 07:45:13;;;;;;;;;;;;;;;;;;5012721;28;20350;-84
2023/10/17 07:47:41;;;;;;;;;;;;;;;;;;5012558;28;20027;-84
2023/10/17 07:50:12;;;;;;;;;;;;;;;;;;5009664;28;19926;-82
2023/10/17 07:52:38;;;;;;;;;;;;;;;;;;5012694;28;19925;-83
2023/10/17 07:57:44;;;;;;;;;;;;;;;;;;5009801;28;19927;-85
2023/10/17 08:00:24;;;;;;;;;;;;;;;;;;5010356;28;20008;-83
2023/10/17 08:02:51;;;;;;;;;;;;;;;;;;5007415;28;19934;-84
2023/10/17 08:05:17;;;;;;;;;;;;;;;;;;5012484;28;19981;-84
2023/10/17 08:07:42;;;;;;;;;;;;;;;;;;5012729;28;19961;-84
2023/10/17 08:10:10;;;;;;;;;;;;;;;;;;5009565;28;19922;-83
2023/10/17 08:12:35;;;;;;;;;;;;;;;;;;5012116;28;19928;-83
2023/10/17 08:15:17;;;;;;;;;;;;;;;;;;5012914;28;19926;-85
2023/10/17 08:17:43;;;;;;;;;;;;;;;;;;5013895;28;19929;-85
2023/10/17 08:25:25;;;;;;;;;;;;;;;;;;5019303;28;19928;-84
2023/10/17 08:27:53;;;;;;;;;;;;;;;;;;5013693;28;19922;-85
2023/10/17 08:30:23;;;;;;;;;;;;;;;;;;5015524;28;19938;-85
2023/10/17 08:35:37;;;;;;;;;;;;;;;;;;5016722;28;19926;-84
2023/10/17 08:38:03;;;;;;;;;;;;;;;;;;5017732;28;20371;-84
2023/10/17 08:42:56;;;;;;;;;;;;;;;;;;5017905;28;19949;-85
2023/10/17 08:45:24;;;;;;;;;;;;;;;;;;5016129;28;19917;-85
2023/10/17 08:47:50;;;;;;;;;;;;;;;;;;5017676;28;19925;-85
2023/10/17 08:50:15;;;;;;;;;;;;;;;;;;5016149;28;20414;-84
2023/10/17 08:52:40;;;;;;;;;;;;;;;;;;5014940;28;19980;-84
2023/10/17 08:55:05;;;;;;;;;;;;;;;;;;5017626;28;20227;-84
2023/10/17 08:57:31;;;;;;;;;;;;;;;;;;5019007;28;19922;-84
2023/10/17 09:00:23;;;;;;;;;;;;;;;;;;5019695;28;19968;-83
2023/10/17 09:02:48;;;;;;;;;;;;;;;;;;5017122;28;19926;-85
2023/10/17 09:05:17;;;;;;;;;;;;;;;;;;5016807;28;20283;-85
2023/10/17 09:07:43;;;;;;;;;;;;;;;;;;5016586;28;19982;-85
2023/10/17 09:10:08;;;;;;;;;;;;;;;;;;5015633;28;19960;-85
2023/10/17 09:12:42;;;;;;;;;;;;;;;;;;5013860;28;19921;-83
2023/10/17 09:15:16;;;;;;;;;;;;;;;;;;5016213;28;19925;-83
2023/10/17 09:17:42;;;;;;;;;;;;;;;;;;5016042;28;19932;-81
2023/10/17 09:20:11;;;;;;;;;;;;;;;;;;5014856;28;19921;-82
2023/10/17 09:22:44;;;;;;;;;;;;;;;;;;5019861;28;20004;-83
2023/10/17 09:25:10;;;;;;;;;;;;;;;;;;5014200;28;20019;-82
2023/10/17 09:27:37;;;;;;;;;;;;;;;;;;5013685;28;19929;-81
2023/10/17 09:30:05;;;;;;;;;;;;;;;;;;5017114;28;20005;-83
2023/10/17 09:32:32;;;;;;;;;;;;;;;;;;5018331;28;19921;-84
2023/10/17 09:34:57;;;;;;;;;;;;;;;;;;5012954;28;19932;-81
2023/10/17 09:37:22;;;;;;;;;;;;;;;;;;5009788;28;20169;-82
2023/10/17 09:39:47;;;;;;;;;;;;;;;;;;5010278;28;19922;-82
2023/10/17 09:42:12;;;;;;;;;;;;;;;;;;5015166;28;19922;-83
2023/10/17 09:44:38;;;;;;;;;;;;;;;;;;5013515;28;19964;-82
2023/10/17 09:47:06;;;;;;;;;;;;;;;;;;5016224;28;20427;-83
2023/10/17 09:49:31;;;;;;;;;;;;;;;;;;5018022;28;19943;-82
2023/10/17 09:51:56;;;;;;;;;;;;;;;;;;5016333;28;20203;-83
2023/10/17 09:54:21;;;;;;;;;;;;;;;;;;5013582;28;20176;-82
2023/10/17 09:56:48;;;;;;;;;;;;;;;;;;5015146;28;19922;-82
2023/10/17 09:59:13;;;;;;;;;;;;;;;;;;5014864;28;19983;-83
2023/10/17 10:01:39;;;;;;;;;;;;;;;;;;5016141;28;20012;-83
2023/10/17 10:04:04;;;;;;;;;;;;;;;;;;5014770;28;20012;-84
2023/10/17 10:06:32;;;;;;;;;;;;;;;;;;5016287;28;19921;-82
2023/10/17 10:08:57;;;;;;;;;;;;;;;;;;5013329;28;19925;-85
2023/10/17 10:11:22;;;;;;;;;;;;;;;;;;5011400;28;19922;-84
2023/10/17 10:13:47;;;;;;;;;;;;;;;;;;5014583;28;19985;-83
2023/10/17 10:16:12;;;;;;;;;;;;;;;;;;5017076;28;19928;-84
2023/10/17 10:18:40;;;;;;;;;;;;;;;;;;5020735;28;19989;-83
2023/10/17 10:21:07;;;;;;;;;;;;;;;;;;5019421;28;20172;-83
2023/10/17 10:23:34;;;;;;;;;;;;;;;;;;5019781;28;20299;-83
2023/10/17 10:25:59;;;;;;;;;;;;;;;;;;5018628;28;20194;-82
2023/10/17 10:28:24;;;;;;;;;;;;;;;;;;5015218;28;19917;-82
2023/10/17 10:30:49;;;;;;;;;;;;;;;;;;5017183;28;19925;-81
2023/10/17 10:33:15;;;;;;;;;;;;;;;;;;5016688;28;19929;-82
2023/10/17 10:35:40;;;;;;;;;;;;;;;;;;5020006;28;19926;-82
2023/10/17 10:38:06;;;;;;;;;;;;;;;;;;5016695;28;19921;-82
2023/10/17 10:40:32;;;;;;;;;;;;;;;;;;5016776;28;20004;-83
2023/10/17 10:42:59;;;;;;;;;;;;;;;;;;5016843;28;19929;-82
2023/10/17 10:45:29;;;;;;;;;;;;;;;;;;5021220;28;19967;-83
2023/10/17 10:47:57;;;;;;;;;;;;;;;;;;5014754;28;19922;-82
2023/10/17 10:50:22;;;;;;;;;;;;;;;;;;5016622;28;19925;-82
2023/10/17 10:52:51;;;;;;;;;;;;;;;;;;5015085;28;19952;-85
2023/10/17 10:55:17;;;;;;;;;;;;;;;;;;5015860;28;19980;-82
2023/10/17 10:57:42;;;;;;;;;;;;;;;;;;5017573;28;19925;-82
2023/10/17 11:00:07;;;;;;;;;;;;;;;;;;5020372;28;19932;-85
2023/10/17 11:02:35;;;;;;;;;;;;;;;;;;5016502;28;19928;-83
2023/10/17 11:05:00;;;;;;;;;;;;;;;;;;5017367;28;19972;-85
2023/10/17 11:07:25;;;;;;;;;;;;;;;;;;5016314;28;19925;-82
2023/10/17 11:09:50;;;;;;;;;;;;;;;;;;5016120;28;19925;-81
2023/10/17 11:12:15;;;;;;;;;;;;;;;;;;5014081;28;19993;-85
2023/10/17 11:14:43;;;;;;;;;;;;;;;;;;5017169;28;19969;-84
2023/10/17 11:17:08;;;;;;;;;;;;;;;;;;5014967;28;19948;-82
2023/10/17 11:19:34;;;;;;;;;;;;;;;;;;5015532;28;20059;-85
2023/10/17 11:22:02;;;;;;;;;;;;;;;;;;5015304;28;19921;-83
2023/10/17 11:24:27;;;;;;;;;;;;;;;;;;5015499;28;19921;-85
2023/10/17 11:26:52;;;;;;;;;;;;;;;;;;5013985;28;19941;-84
2023/10/17 11:29:17;;;;;;;;;;;;;;;;;;5014383;28;19944;-85
2023/10/17 11:31:43;;;;;;;;;;;;;;;;;;5016244;28;19925;-85
2023/10/17 11:34:14;;;;;;;;;;;;;;;;;;5015776;28;19929;-85
2023/10/17 11:36:45;;;;;;;;;;;;;;;;;;5016347;28;19921;-83
2023/10/17 11:39:10;;;;;;;;;;;;;;;;;;5013743;28;19921;-84
2023/10/17 11:41:41;;;;;;;;;;;;;;;;;;5013013;28;19952;-85
2023/10/17 11:44:07;;;;;;;;;;;;;;;;;;5014705;28;19944;-84
2023/10/17 11:46:33;;;;;;;;;;;;;;;;;;5009101;28;19975;-84
2023/10/17 11:48:58;;;;;;;;;;;;;;;;;;5008994;28;19922;-83
2023/10/17 11:51:28;;;;;;;;;;;;;;;;;;5008505;28;19921;-84
2023/10/17 11:53:54;;;;;;;;;;;;;;;;;;5009868;28;19921;-83
2023/10/17 11:56:19;;;;;;;;;;;;;;;;;;5009652;28;19995;-85
2023/10/17 11:58:44;;;;;;;;;;;;;;;;;;5005967;28;20458;-83
2023/10/17 12:01:12;;;;;;;;;;;;;;;;;;5011769;28;20368;-83
2023/10/17 12:03:37;;;;;;;;;;;;;;;;;;5013802;28;19937;-83
2023/10/17 12:06:02;;;;;;;;;;;;;;;;;;5016861;28;19921;-84
2023/10/17 12:08:30;;;;;;;;;;;;;;;;;;5019039;28;19960;-83
2023/10/17 12:10:55;;;;;;;;;;;;;;;;;;5013448;28;19980;-81
2023/10/17 12:13:21;;;;;;;;;;;;;;;;;;5016149;28;19922;-83
2023/10/17 12:15:46;;;;;;;;;;;;;;;;;;5016487;28;20344;-83
2023/10/17 12:18:11;;;;;;;;;;;;;;;;;;5015451;28;19921;-82
2023/10/17 12:20:40;;;;;;;;;;;;;;;;;;5016037;28;19928;-82
2023/10/17 12:23:08;;;;;;;;;;;;;;;;;;5016547;28;19985;-84
2023/10/17 12:25:34;;;;;;;;;;;;;;;;;;5015276;28;19929;-83
2023/10/17 12:27:59;;;;;;;;;;;;;;;;;;5017866;28;19929;-83
2023/10/17 12:30:27;;;;;;;;;;;;;;;;;;5014753;28;19952;-82
2023/10/17 12:32:52;;;;;;;;;;;;;;;;;;5020469;28;19921;-80
2023/10/17 12:35:21;;;;;;;;;;;;;;;;;;5019353;28;19953;-83
2023/10/17 12:37:46;;;;;;;;;;;;;;;;;;5021001;28;20405;-83
2023/10/17 12:40:18;;;;;;;;;;;;;;;;;;5016440;28;19940;-82
2023/10/17 12:42:44;;;;;;;;;;;;;;;;;;5016522;28;19921;-81
2023/10/17 12:45:09;;;;;;;;;;;;;;;;;;5020088;28;19928;-85
2023/10/17 12:47:34;;;;;;;;;;;;;;;;;;5024698;28;20312;-84
2023/10/17 12:49:59;;;;;;;;;;;;;;;;;;5022227;28;19941;-86
2023/10/17 12:52:26;;;;;;;;;;;;;;;;;;5020787;28;19921;-81
2023/10/17 12:54:51;;;;;;;;;;;;;;;;;;5017498;28;20035;-82
2023/10/17 12:57:16;;;;;;;;;;;;;;;;;;5017865;28;19964;-82
2023/10/17 12:59:41;;;;;;;;;;;;;;;;;;5019674;28;20304;-82
2023/10/17 13:02:06;;;;;;;;;;;;;;;;;;5019067;28;19928;-82
2023/10/17 13:04:31;;;;;;;;;;;;;;;;;;5020194;28;19991;-83
2023/10/17 13:06:57;;;;;;;;;;;;;;;;;;5017015;28;19921;-83
2023/10/17 13:09:22;;;;;;;;;;;;;;;;;;5020173;28;19984;-83
2023/10/17 13:11:47;;;;;;;;;;;;;;;;;;5018787;28;19996;-82
2023/10/17 13:14:12;;;;;;;;;;;;;;;;;;5017555;28;20291;-84
2023/10/17 13:16:38;;;;;;;;;;;;;;;;;;5017175;28;19921;-82
2023/10/17 13:19:07;;;;;;;;;;;;;;;;;;5017156;28;19932;-82
2023/10/17 13:21:32;;;;;;;;;;;;;;;;;;5021890;28;19928;-85
2023/10/17 13:23:58;;;;;;;;;;;;;;;;;;5020214;28;19917;-84
2023/10/17 13:26:24;;;;;;;;;;;;;;;;;;5018361;28;20491;-82
2023/10/17 13:28:49;;;;;;;;;;;;;;;;;;5018760;28;20338;-82
2023/10/17 13:31:14;;;;;;;;;;;;;;;;;;5017394;28;20459;-83
2023/10/17 13:33:39;;;;;;;;;;;;;;;;;;5016276;28;19985;-82
2023/10/17 13:36:05;;;;;;;;;;;;;;;;;;5018105;28;19936;-85
2023/10/17 13:38:30;;;;;;;;;;;;;;;;;;5014960;28;19922;-81
2023/10/17 13:40:55;;;;;;;;;;;;;;;;;;5024337;28;19926;-83
2023/10/17 13:43:21;;;;;;;;;;;;;;;;;;5016756;28;19923;-84
2023/10/17 13:45:46;;;;;;;;;;;;;;;;;;5018373;28;19932;-84
2023/10/17 13:48:11;;;;;;;;;;;;;;;;;;5018602;28;19968;-84
2023/10/17 13:50:36;;;;;;;;;;;;;;;;;;5018107;28;19977;-83
2023/10/17 13:53:09;;;;;;;;;;;;;;;;;;5014859;28;19929;-84
2023/10/17 13:55:34;;;;;;;;;;;;;;;;;;5019435;28;19984;-81
2023/10/17 13:58:02;;;;;;;;;;;;;;;;;;5016561;28;19921;-83
2023/10/17 14:00:36;;;;;;;;;;;;;;;;;;5017566;28;19922;-84
2023/10/17 14:03:06;;;;;;;;;;;;;;;;;;5015572;28;20100;-84
2023/10/17 14:05:31;;;;;;;;;;;;;;;;;;5015032;28;20268;-84
2023/10/17 14:07:56;;;;;;;;;;;;;;;;;;5018182;28;19957;-82
2023/10/17 14:10:24;;;;;;;;;;;;;;;;;;5017071;28;19992;-83
2023/10/17 14:12:50;;;;;;;;;;;;;;;;;;5017951;28;19925;-84
2023/10/17 14:15:15;;;;;;;;;;;;;;;;;;5019323;28;19956;-83
2023/10/17 14:17:45;;;;;;;;;;;;;;;;;;5019495;28;19921;-83
2023/10/17 14:20:18;;;;;;;;;;;;;;;;;;5020189;28;19921;-86
2023/10/17 14:23:08;;;;;;;;;;;;;;;;;;5023849;28;20282;-84
2023/10/17 14:28:15;;;;;;;;;;;;;;;;;;5016310;28;19997;-84
2023/10/17 14:30:40;;;;;;;;;;;;;;;;;;5019600;28;19964;-84
2023/10/17 14:33:05;;;;;;;;;;;;;;;;;;5019188;28;19965;-84
2023/10/17 14:35:30;;;;;;;;;;;;;;;;;;5019543;28;20304;-86
2023/10/17 14:37:55;;;;;;;;;;;;;;;;;;5020910;28;20347;-84
2023/10/17 14:40:22;;;;;;;;;;;;;;;;;;5021363;28;19917;-87
2023/10/17 14:42:47;;;;;;;;;;;;;;;;;;5025458;28;19930;-87
2023/10/17 14:45:12;;;;;;;;;;;;;;;;;;5025080;28;19928;-84
2023/10/17 14:47:38;;;;;;;;;;;;;;;;;;5022660;28;19940;-83
2023/10/17 14:50:06;;;;;;;;;;;;;;;;;;5017677;28;19936;-85
2023/10/17 14:52:31;;;;;;;;;;;;;;;;;;5022203;28;19932;-83
2023/10/17 14:54:59;;;;;;;;;;;;;;;;;;5019419;28;20004;-82
2023/10/17 14:57:26;;;;;;;;;;;;;;;;;;5020312;28;20192;-85
2023/10/17 14:59:51;;;;;;;;;;;;;;;;;;5019821;28;19921;-85
2023/10/17 15:02:16;;;;;;;;;;;;;;;;;;5016152;28;19937;-82
2023/10/17 15:04:41;;;;;;;;;;;;;;;;;;5016500;28;19921;-85
2023/10/17 15:07:07;;;;;;;;;;;;;;;;;;5017474;28;19922;-83
2023/10/17 15:09:34;;;;;;;;;;;;;;;;;;5013189;28;19922;-84
2023/10/17 15:11:59;;;;;;;;;;;;;;;;;;5015578;28;19973;-84
2023/10/17 15:14:26;;;;;;;;;;;;;;;;;;5013949;28;19956;-85
2023/10/17 15:16:51;;;;;;;;;;;;;;;;;;5014773;28;19950;-83
2023/10/17 15:19:16;;;;;;;;;;;;;;;;;;5014825;28;19952;-83
2023/10/17 15:21:41;;;;;;;;;;;;;;;;;;5019314;28;19936;-88
2023/10/17 15:24:10;;;;;;;;;;;;;;;;;;5024394;28;19921;-88
2023/10/17 15:26:35;;;;;;;;;;;;;;;;;;5014898;28;19909;-84
2023/10/17 15:29:00;;;;;;;;;;;;;;;;;;5016513;28;19976;-82
2023/10/17 15:31:27;;;;;;;;;;;;;;;;;;5011427;28;19925;-85
2023/10/17 15:33:52;;;;;;;;;;;;;;;;;;5016358;28;19929;-85
2023/10/17 15:36:17;;;;;;;;;;;;;;;;;;5013867;28;19922;-82
2023/10/17 15:38:43;;;;;;;;;;;;;;;;;;5017421;28;19921;-83
2023/10/17 15:41:09;;;;;;;;;;;;;;;;;;5020453;28;19921;-83
2023/10/17 15:43:34;;;;;;;;;;;;;;;;;;5018649;28;19926;-82
2023/10/17 15:45:59;;;;;;;;;;;;;;;;;;5014544;28;19933;-83
2023/10/17 15:48:24;;;;;;;;;;;;;;;;;;5015399;28;19921;-82
2023/10/17 15:50:49;;;;;;;;;;;;;;;;;;5012534;28;19921;-84
2023/10/17 15:53:14;;;;;;;;;;;;;;;;;;5016224;28;19956;-82
2023/10/17 15:55:39;;;;;;;;;;;;;;;;;;5015258;28;19925;-84
2023/10/17 15:58:05;;;;;;;;;;;;;;;;;;5014354;28;20020;-82
2023/10/17 16:00:30;;;;;;;;;;;;;;;;;;5015627;28;20036;-82
2023/10/17 16:02:56;;;;;;;;;;;;;;;;;;5017802;28;19956;-83
2023/10/17 16:05:21;;;;;;;;;;;;;;;;;;5016580;28;19929;-85
2023/10/17 16:07:46;;;;;;;;;;;;;;;;;;5019970;28;19924;-83
2023/10/17 16:10:14;;;;;;;;;;;;;;;;;;5019651;28;19971;-84
2023/10/17 16:12:39;;;;;;;;;;;;;;;;;;5020908;28;19929;-83
2023/10/17 16:15:06;;;;;;;;;;;;;;;;;;5021370;28;19940;-83
2023/10/17 16:17:32;;;;;;;;;;;;;;;;;;5018844;28;20261;-86
2023/10/17 16:19:57;;;;;;;;;;;;;;;;;;5017087;28;19963;-84
2023/10/17 16:22:22;;;;;;;;;;;;;;;;;;5019142;28;19971;-83
2023/10/17 16:24:48;;;;;;;;;;;;;;;;;;5019371;28;19921;-82
2023/10/17 16:27:15;;;;;;;;;;;;;;;;;;5020979;28;20405;-83
2023/10/17 16:29:40;;;;;;;;;;;;;;;;;;5017192;28;20087;-83
2023/10/17 16:32:06;;;;;;;;;;;;;;;;;;5016945;28;19937;-83
2023/10/17 16:34:31;;;;;;;;;;;;;;;;;;5018305;28;19926;-83
2023/10/17 16:36:57;;;;;;;;;;;;;;;;;;5017316;28;19921;-82
2023/10/17 16:39:23;;;;;;;;;;;;;;;;;;5017507;28;19922;-85
2023/10/17 16:41:49;;;;;;;;;;;;;;;;;;5014695;28;19929;-83
2023/10/17 16:44:14;;;;;;;;;;;;;;;;;;5018139;28;19933;-82
2023/10/17 16:46:41;;;;;;;;;;;;;;;;;;5011804;28;19992;-84
2023/10/17 16:49:06;;;;;;;;;;;;;;;;;;5016393;28;19932;-85
2023/10/17 16:51:31;;;;;;;;;;;;;;;;;;5016228;28;19922;-86
2023/10/17 16:53:56;;;;;;;;;;;;;;;;;;5017341;28;20291;-86
2023/10/17 16:56:22;;;;;;;;;;;;;;;;;;5015110;28;19922;-83
2023/10/17 16:58:47;;;;;;;;;;;;;;;;;;5018598;28;19976;-83
2023/10/17 17:01:13;;;;;;;;;;;;;;;;;;5017336;28;19922;-84
2023/10/17 17:03:39;;;;;;;;;;;;;;;;;;5016911;28;20414;-85
2023/10/17 17:06:07;;;;;;;;;;;;;;;;;;5017812;28;19929;-84
2023/10/17 17:08:32;;;;;;;;;;;;;;;;;;5017062;28;19936;-82
2023/10/17 17:10:57;;;;;;;;;;;;;;;;;;5019067;28;20008;-83
2023/10/17 17:13:22;;;;;;;;;;;;;;;;;;5019101;28;20000;-83
2023/10/17 17:15:47;;;;;;;;;;;;;;;;;;5016811;28;19944;-84
2023/10/17 17:18:12;;;;;;;;;;;;;;;;;;5016372;28;19921;-82
2023/10/17 17:20:38;;;;;;;;;;;;;;;;;;5016549;28;19922;-82
2023/10/17 17:23:03;;;;;;;;;;;;;;;;;;5017792;28;20058;-86
2023/10/17 17:25:28;;;;;;;;;;;;;;;;;;5017074;28;19927;-83
2023/10/17 17:27:53;;;;;;;;;;;;;;;;;;5016818;28;19917;-82
2023/10/17 17:30:19;;;;;;;;;;;;;;;;;;5016413;28;19922;-83
2023/10/17 17:32:44;;;;;;;;;;;;;;;;;;5018320;28;20361;-86
2023/10/17 17:35:10;;;;;;;;;;;;;;;;;;5019182;28;19937;-82
2023/10/17 17:37:36;;;;;;;;;;;;;;;;;;5018139;28;19979;-82
2023/10/17 17:40:01;;;;;;;;;;;;;;;;;;5018654;28;19952;-83
2023/10/17 17:42:26;;;;;;;305.42;89.53;;;;;;;;;;5010774;28;19921;-82
2023/10/17 17:44:52;;;;;;;318.75;161.50;;;;;;;;;;5016069;28;20409;-83
2023/10/17 17:47:17;;;;;;;;;;;;;;;;;;5020056;28;24063;-83
2023/10/17 17:49:43;;;;;;;;;;;;;;;;;;5020379;28;20431;-84
2023/10/17 17:52:10;;;;;;;;;;;;;;;;;;5018776;28;20083;-84
2023/10/17 17:54:35;;;;;;;;;;;;;;;;;;5020221;28;19921;-82
2023/10/17 17:57:00;;;;;;;;;;;;;;;;;;5014294;28;19965;-86
2023/10/17 17:59:25;;;;;;;;;;;;;;;;;;5012892;28;20303;-81
2023/10/17 18:01:51;;;;;;;;;;;;;;;;;;5017727;28;19921;-85
2023/10/17 18:04:16;;;;;;;;;;;;;;;;;;5019288;28;19981;-83
2023/10/17 18:06:41;;;;;;;;;;;;;;;;;;5012899;28;20391;-83
2023/10/17 18:09:06;;;;;;;;;;;;;;;;;;5020262;28;19917;-83
2023/10/17 18:11:33;;;;;;;;;;;;;;;;;;5020403;28;19941;-81
2023/10/17 18:13:58;;;;;;;;;;;;;;;;;;5023902;28;20496;-81
2023/10/17 18:16:23;;;;;;;;;;;;;;;;;;5023379;28;20178;-85
2023/10/17 18:18:50;;;;;;;;;;;;;;;;;;5013843;28;19924;-82
2023/10/17 18:21:17;;;;;;;;;;;;;;;;;;5016180;28;19971;-81
2023/10/17 18:23:45;;;;;;;;;;;;;;;;;;5013930;28;19921;-81
2023/10/17 18:26:10;;;;;;;;;;;;;;;;;;5013588;28;20012;-84
2023/10/17 18:28:35;;;;;;;;;;;;;;;;;;5010567;28;19949;-81
2023/10/17 18:31:00;;;;;;;;;;;;;;;;;;5015906;28;19988;-81
2023/10/17 18:33:25;;;;;;;;;;;;;;;;;;5015736;28;19918;-81
2023/10/17 18:35:51;;;;;;;;;;;;;;;;;;5015466;28;19929;-81
2023/10/17 18:38:16;;;;;;;;;;;;;;;;;;5013298;28;19918;-81
2023/10/17 18:40:42;;;;;;;;;;;;;;;;;;5011856;28;19917;-84
2023/10/17 18:43:07;;;;;;;;;;;;;;;;;;5011711;28;19917;-83
2023/10/17 18:45:33;;;;;;;;;;;;;;;;;;5012331;28;19917;-82
2023/10/17 18:47:58;;;;;;;;;;;;;;;;;;5015202;28;19921;-81
2023/10/17 18:50:24;;;;;;;;;;;;;;;;;;5015343;28;19971;-83